Terminal Aerodrome Forecast
Issued by NWS

Home | Current Version | Previous Version | Text Only | Print | Product List | Glossary On
Versions: 1 2 3 4 5 6 7 8 9 10 11 12 13 14
000
FTUS45 KRIW 282200 AAA
TAFBPI
TAF AMD
KBPI 282203Z 2822/2918 28017G27KT P6SM FEW200 WS020/26035KT
     FM290000 21007KT P6SM SKC WS015/25050KT
     FM291200 24020G30KT P6SM SCT070 WS018/25055KT=

USA.gov is the U.S. government's official web portal to all federal, state and local government web resources and services.